sensor_id;sensor_type;location;lat;lon;timestamp;temperature;humidity
8095;DHT22;4090;49.270;8.696;2023-07-29T00:02:10;20.10;99.90
8095;DHT22;4090;49.270;8.696;2023-07-29T00:04:53;20.10;99.90
8095;DHT22;4090;49.270;8.696;2023-07-29T00:07:35;20.10;99.90
8095;DHT22;4090;49.270;8.696;2023-07-29T00:10:17;20.10;99.90
8095;DHT22;4090;49.270;8.696;2023-07-29T00:12:59;20.10;99.90
8095;DHT22;4090;49.270;8.696;2023-07-29T00:15:41;20.10;99.90
8095;DHT22;4090;49.270;8.696;2023-07-29T00:18:23;20.10;99.90
8095;DHT22;4090;49.270;8.696;2023-07-29T00:21:06;20.10;99.90
8095;DHT22;4090;49.270;8.696;2023-07-29T00:23:48;20.10;99.90
8095;DHT22;4090;49.270;8.696;2023-07-29T00:26:30;20.10;99.90
8095;DHT22;4090;49.270;8.696;2023-07-29T00:29:12;20.10;99.90
8095;DHT22;4090;49.270;8.696;2023-07-29T00:31:54;20.10;99.90
8095;DHT22;4090;49.270;8.696;2023-07-29T00:34:36;20.10;99.90
8095;DHT22;4090;49.270;8.696;2023-07-29T00:37:19;20.10;99.90
8095;DHT22;4090;49.270;8.696;2023-07-29T00:40:01;20.10;99.90
8095;DHT22;4090;49.270;8.696;2023-07-29T00:42:45;20.10;99.90
8095;DHT22;4090;49.270;8.696;2023-07-29T00:45:27;20.10;99.90
8095;DHT22;4090;49.270;8.696;2023-07-29T00:48:10;20.10;99.90
8095;DHT22;4090;49.270;8.696;2023-07-29T00:50:54;20.10;99.90
8095;DHT22;4090;49.270;8.696;2023-07-29T00:53:38;20.10;99.90
8095;DHT22;4090;49.270;8.696;2023-07-29T00:56:21;20.00;99.90
8095;DHT22;4090;49.270;8.696;2023-07-29T00:59:03;20.10;99.90
8095;DHT22;4090;49.270;8.696;2023-07-29T01:01:45;20.10;99.90
8095;DHT22;4090;49.270;8.696;2023-07-29T01:04:27;20.10;99.90
8095;DHT22;4090;49.270;8.696;2023-07-29T01:07:17;20.10;99.90
8095;DHT22;4090;49.270;8.696;2023-07-29T01:10:10;20.10;99.90
8095;DHT22;4090;49.270;8.696;2023-07-29T01:12:58;20.10;99.90
8095;DHT22;4090;49.270;8.696;2023-07-29T01:15:47;20.10;99.90
8095;DHT22;4090;49.270;8.696;2023-07-29T01:18:32;20.00;99.90
8095;DHT22;4090;49.270;8.696;2023-07-29T01:21:17;20.00;99.90
8095;DHT22;4090;49.270;8.696;2023-07-29T01:24:00;20.00;99.90
8095;DHT22;4090;49.270;8.696;2023-07-29T01:26:42;20.00;99.90
8095;DHT22;4090;49.270;8.696;2023-07-29T01:29:24;20.00;99.90
8095;DHT22;4090;49.270;8.696;2023-07-29T01:32:10;20.10;99.90
8095;DHT22;4090;49.270;8.696;2023-07-29T01:34:58;20.00;99.90
8095;DHT22;4090;49.270;8.696;2023-07-29T01:37:46;20.00;99.90
8095;DHT22;4090;49.270;8.696;2023-07-29T01:40:31;20.00;99.90
8095;DHT22;4090;49.270;8.696;2023-07-29T01:43:13;20.00;99.90
8095;DHT22;4090;49.270;8.696;2023-07-29T01:45:56;20.00;99.90
8095;DHT22;4090;49.270;8.696;2023-07-29T01:48:38;20.00;99.90
8095;DHT22;4090;49.270;8.696;2023-07-29T01:51:20;20.00;99.90
8095;DHT22;4090;49.270;8.696;2023-07-29T01:54:03;20.00;99.90
8095;DHT22;4090;49.270;8.696;2023-07-29T01:56:46;20.00;99.90
8095;DHT22;4090;49.270;8.696;2023-07-29T01:59:28;20.00;99.90
8095;DHT22;4090;49.270;8.696;2023-07-29T02:02:10;20.00;99.90
8095;DHT22;4090;49.270;8.696;2023-07-29T02:04:52;20.00;99.90
8095;DHT22;4090;49.270;8.696;2023-07-29T02:07:36;20.00;99.90
8095;DHT22;4090;49.270;8.696;2023-07-29T02:10:18;20.00;99.90
8095;DHT22;4090;49.270;8.696;2023-07-29T02:13:02;20.00;99.90
8095;DHT22;4090;49.270;8.696;2023-07-29T02:15:44;20.00;99.90
8095;DHT22;4090;49.270;8.696;2023-07-29T02:18:26;20.00;99.90
8095;DHT22;4090;49.270;8.696;2023-07-29T02:21:07;20.00;99.90
8095;DHT22;4090;49.270;8.696;2023-07-29T02:23:49;20.00;99.90
8095;DHT22;4090;49.270;8.696;2023-07-29T02:26:31;20.00;99.90
8095;DHT22;4090;49.270;8.696;2023-07-29T02:29:15;19.90;99.90
8095;DHT22;4090;49.270;8.696;2023-07-29T02:31:57;20.00;99.90
8095;DHT22;4090;49.270;8.696;2023-07-29T02:34:38;19.90;99.90
8095;DHT22;4090;49.270;8.696;2023-07-29T02:37:20;19.90;99.90
8095;DHT22;4090;49.270;8.696;2023-07-29T02:40:03;19.90;99.90
8095;DHT22;4090;49.270;8.696;2023-07-29T02:42:46;20.00;99.90
8095;DHT22;4090;49.270;8.696;2023-07-29T02:45:30;19.90;99.90
8095;DHT22;4090;49.270;8.696;2023-07-29T02:48:12;19.90;99.90
8095;DHT22;4090;49.270;8.696;2023-07-29T02:50:54;19.90;99.90
8095;DHT22;4090;49.270;8.696;2023-07-29T02:53:35;19.90;99.90
8095;DHT22;4090;49.270;8.696;2023-07-29T02:56:17;19.90;99.90
8095;DHT22;4090;49.270;8.696;2023-07-29T02:59:00;19.90;99.90
8095;DHT22;4090;49.270;8.696;2023-07-29T03:01:44;19.90;99.90
8095;DHT22;4090;49.270;8.696;2023-07-29T03:04:26;19.90;99.90
8095;DHT22;4090;49.270;8.696;2023-07-29T03:07:08;19.90;99.90
8095;DHT22;4090;49.270;8.696;2023-07-29T03:09:50;19.90;99.90
8095;DHT22;4090;49.270;8.696;2023-07-29T03:12:32;19.90;99.90
8095;DHT22;4090;49.270;8.696;2023-07-29T03:15:14;19.90;99.90
8095;DHT22;4090;49.270;8.696;2023-07-29T03:17:57;19.90;99.90
8095;DHT22;4090;49.270;8.696;2023-07-29T03:20:39;19.90;99.90
8095;DHT22;4090;49.270;8.696;2023-07-29T03:23:21;19.90;99.90
8095;DHT22;4090;49.270;8.696;2023-07-29T03:26:03;19.90;99.90
8095;DHT22;4090;49.270;8.696;2023-07-29T03:28:50;19.90;99.90
8095;DHT22;4090;49.270;8.696;2023-07-29T03:31:32;19.90;99.90
8095;DHT22;4090;49.270;8.696;2023-07-29T03:34:17;19.90;99.90
8095;DHT22;4090;49.270;8.696;2023-07-29T03:37:01;19.90;99.90
8095;DHT22;4090;49.270;8.696;2023-07-29T03:39:43;19.90;99.90
8095;DHT22;4090;49.270;8.696;2023-07-29T03:42:25;19.90;99.90
8095;DHT22;4090;49.270;8.696;2023-07-29T03:45:08;19.90;99.90
8095;DHT22;4090;49.270;8.696;2023-07-29T03:47:50;19.90;99.90
8095;DHT22;4090;49.270;8.696;2023-07-29T03:50:35;19.90;99.90
8095;DHT22;4090;49.270;8.696;2023-07-29T03:53:17;19.90;99.90
8095;DHT22;4090;49.270;8.696;2023-07-29T03:55:59;19.90;99.90
8095;DHT22;4090;49.270;8.696;2023-07-29T03:58:41;19.90;99.90
8095;DHT22;4090;49.270;8.696;2023-07-29T04:01:23;19.90;99.90
8095;DHT22;4090;49.270;8.696;2023-07-29T04:04:05;19.90;99.90
8095;DHT22;4090;49.270;8.696;2023-07-29T04:06:49;19.90;99.90
8095;DHT22;4090;49.270;8.696;2023-07-29T04:09:30;19.90;99.90
8095;DHT22;4090;49.270;8.696;2023-07-29T04:12:12;19.90;99.90
8095;DHT22;4090;49.270;8.696;2023-07-29T04:14:54;19.90;99.90
8095;DHT22;4090;49.270;8.696;2023-07-29T04:17:36;19.90;99.90
8095;DHT22;4090;49.270;8.696;2023-07-29T04:20:18;19.90;99.90
8095;DHT22;4090;49.270;8.696;2023-07-29T04:23:02;19.90;99.90
8095;DHT22;4090;49.270;8.696;2023-07-29T04:25:43;19.90;99.90
8095;DHT22;4090;49.270;8.696;2023-07-29T04:28:25;19.90;99.90
8095;DHT22;4090;49.270;8.696;2023-07-29T04:31:07;19.90;99.90
8095;DHT22;4090;49.270;8.696;2023-07-29T04:33:49;19.90;99.90
8095;DHT22;4090;49.270;8.696;2023-07-29T04:36:31;19.90;99.90
8095;DHT22;4090;49.270;8.696;2023-07-29T04:39:15;19.90;99.90
8095;DHT22;4090;49.270;8.696;2023-07-29T04:41:57;19.90;99.90
8095;DHT22;4090;49.270;8.696;2023-07-29T04:44:39;19.90;99.90
8095;DHT22;4090;49.270;8.696;2023-07-29T04:47:22;19.90;99.90
8095;DHT22;4090;49.270;8.696;2023-07-29T04:50:05;20.00;99.90
8095;DHT22;4090;49.270;8.696;2023-07-29T04:52:47;20.00;99.90
8095;DHT22;4090;49.270;8.696;2023-07-29T04:55:31;20.00;99.90
8095;DHT22;4090;49.270;8.696;2023-07-29T04:58:13;19.90;99.90
8095;DHT22;4090;49.270;8.696;2023-07-29T05:00:54;19.80;99.90
8095;DHT22;4090;49.270;8.696;2023-07-29T05:06:20;19.70;99.90
8095;DHT22;4090;49.270;8.696;2023-07-29T05:09:12;19.80;99.90
8095;DHT22;4090;49.270;8.696;2023-07-29T05:11:56;19.70;99.90
8095;DHT22;4090;49.270;8.696;2023-07-29T05:14:37;19.60;99.90
8095;DHT22;4090;49.270;8.696;2023-07-29T05:17:19;19.60;99.90
8095;DHT22;4090;49.270;8.696;2023-07-29T05:20:01;19.60;99.90
8095;DHT22;4090;49.270;8.696;2023-07-29T05:22:43;19.60;99.90
8095;DHT22;4090;49.270;8.696;2023-07-29T05:25:25;19.60;99.90
8095;DHT22;4090;49.270;8.696;2023-07-29T05:28:08;19.60;99.90
8095;DHT22;4090;49.270;8.696;2023-07-29T05:30:50;19.60;99.90
8095;DHT22;4090;49.270;8.696;2023-07-29T05:33:32;19.60;99.90
8095;DHT22;4090;49.270;8.696;2023-07-29T05:36:14;19.60;99.90
8095;DHT22;4090;49.270;8.696;2023-07-29T05:38:56;19.60;99.90
8095;DHT22;4090;49.270;8.696;2023-07-29T05:41:38;19.60;99.90
8095;DHT22;4090;49.270;8.696;2023-07-29T05:44:21;19.70;99.90
8095;DHT22;4090;49.270;8.696;2023-07-29T05:47:03;19.70;99.90
8095;DHT22;4090;49.270;8.696;2023-07-29T05:49:46;19.70;99.90
8095;DHT22;4090;49.270;8.696;2023-07-29T05:52:27;19.70;99.90
8095;DHT22;4090;49.270;8.696;2023-07-29T05:55:10;19.70;99.90
8095;DHT22;4090;49.270;8.696;2023-07-29T05:57:51;19.70;99.90
8095;DHT22;4090;49.270;8.696;2023-07-29T06:00:35;19.70;99.90
8095;DHT22;4090;49.270;8.696;2023-07-29T06:03:17;19.70;99.90
8095;DHT22;4090;49.270;8.696;2023-07-29T06:05:59;19.70;99.90
8095;DHT22;4090;49.270;8.696;2023-07-29T06:08:41;19.70;99.90
8095;DHT22;4090;49.270;8.696;2023-07-29T06:11:23;19.70;99.90
8095;DHT22;4090;49.270;8.696;2023-07-29T06:14:05;19.70;99.90
8095;DHT22;4090;49.270;8.696;2023-07-29T06:16:48;19.70;99.90
8095;DHT22;4090;49.270;8.696;2023-07-29T06:19:30;19.70;99.90
8095;DHT22;4090;49.270;8.696;2023-07-29T06:22:12;19.70;99.90
8095;DHT22;4090;49.270;8.696;2023-07-29T06:24:54;19.70;99.90
8095;DHT22;4090;49.270;8.696;2023-07-29T06:27:36;19.70;99.90
8095;DHT22;4090;49.270;8.696;2023-07-29T06:30:18;19.80;99.90
8095;DHT22;4090;49.270;8.696;2023-07-29T06:33:01;19.80;99.90
8095;DHT22;4090;49.270;8.696;2023-07-29T06:35:43;19.80;99.90
8095;DHT22;4090;49.270;8.696;2023-07-29T06:38:25;19.80;99.90
8095;DHT22;4090;49.270;8.696;2023-07-29T06:41:07;19.90;99.90
8095;DHT22;4090;49.270;8.696;2023-07-29T06:43:49;19.90;99.90
8095;DHT22;4090;49.270;8.696;2023-07-29T06:46:31;19.90;99.90
8095;DHT22;4090;49.270;8.696;2023-07-29T06:49:14;19.90;99.90
8095;DHT22;4090;49.270;8.696;2023-07-29T06:51:56;19.90;99.90
8095;DHT22;4090;49.270;8.696;2023-07-29T06:54:38;19.90;99.90
8095;DHT22;4090;49.270;8.696;2023-07-29T06:57:20;20.00;99.90
8095;DHT22;4090;49.270;8.696;2023-07-29T07:00:02;20.00;99.90
8095;DHT22;4090;49.270;8.696;2023-07-29T07:02:45;20.00;99.90
8095;DHT22;4090;49.270;8.696;2023-07-29T07:05:28;20.00;99.90
8095;DHT22;4090;49.270;8.696;2023-07-29T07:08:10;20.00;99.90
8095;DHT22;4090;49.270;8.696;2023-07-29T07:10:52;20.00;99.90
8095;DHT22;4090;49.270;8.696;2023-07-29T07:13:34;20.00;99.90
8095;DHT22;4090;49.270;8.696;2023-07-29T07:16:16;20.10;99.90
8095;DHT22;4090;49.270;8.696;2023-07-29T07:18:58;20.10;99.90
8095;DHT22;4090;49.270;8.696;2023-07-29T07:21:41;20.10;99.90
8095;DHT22;4090;49.270;8.696;2023-07-29T07:24:23;20.10;99.90
8095;DHT22;4090;49.270;8.696;2023-07-29T07:27:05;20.10;99.90
8095;DHT22;4090;49.270;8.696;2023-07-29T07:29:47;20.20;99.90
8095;DHT22;4090;49.270;8.696;2023-07-29T07:32:29;20.30;99.90
8095;DHT22;4090;49.270;8.696;2023-07-29T07:35:11;20.30;99.90
8095;DHT22;4090;49.270;8.696;2023-07-29T07:37:54;20.30;99.90
8095;DHT22;4090;49.270;8.696;2023-07-29T07:40:36;20.40;99.90
8095;DHT22;4090;49.270;8.696;2023-07-29T07:43:18;20.40;99.90
8095;DHT22;4090;49.270;8.696;2023-07-29T07:46:01;20.40;99.90
8095;DHT22;4090;49.270;8.696;2023-07-29T07:48:43;20.40;99.90
8095;DHT22;4090;49.270;8.696;2023-07-29T07:51:25;20.50;99.90
8095;DHT22;4090;49.270;8.696;2023-07-29T07:54:08;20.60;99.90
8095;DHT22;4090;49.270;8.696;2023-07-29T07:56:50;20.60;99.90
8095;DHT22;4090;49.270;8.696;2023-07-29T07:59:32;20.60;99.90
8095;DHT22;4090;49.270;8.696;2023-07-29T08:02:13;20.60;99.90
8095;DHT22;4090;49.270;8.696;2023-07-29T08:04:55;20.70;99.90
8095;DHT22;4090;49.270;8.696;2023-07-29T08:07:37;20.70;99.90
8095;DHT22;4090;49.270;8.696;2023-07-29T08:10:20;20.60;99.90
8095;DHT22;4090;49.270;8.696;2023-07-29T08:13:02;20.60;99.90
8095;DHT22;4090;49.270;8.696;2023-07-29T08:15:46;20.60;99.90
8095;DHT22;4090;49.270;8.696;2023-07-29T08:18:28;20.60;99.90
8095;DHT22;4090;49.270;8.696;2023-07-29T08:21:10;20.60;99.90
8095;DHT22;4090;49.270;8.696;2023-07-29T08:23:52;20.60;99.90
8095;DHT22;4090;49.270;8.696;2023-07-29T08:26:35;20.60;99.90
8095;DHT22;4090;49.270;8.696;2023-07-29T08:29:17;20.60;99.90
8095;DHT22;4090;49.270;8.696;2023-07-29T08:32:03;20.70;99.90
8095;DHT22;4090;49.270;8.696;2023-07-29T08:34:44;20.70;99.90
8095;DHT22;4090;49.270;8.696;2023-07-29T08:37:26;20.60;99.90
8095;DHT22;4090;49.270;8.696;2023-07-29T08:40:09;20.70;99.90
8095;DHT22;4090;49.270;8.696;2023-07-29T08:42:54;20.70;99.90
8095;DHT22;4090;49.270;8.696;2023-07-29T08:45:37;20.80;99.90
8095;DHT22;4090;49.270;8.696;2023-07-29T08:48:26;20.80;99.90
8095;DHT22;4090;49.270;8.696;2023-07-29T08:51:11;20.80;99.90
8095;DHT22;4090;49.270;8.696;2023-07-29T08:53:53;20.80;99.90
8095;DHT22;4090;49.270;8.696;2023-07-29T08:56:35;20.90;99.90
8095;DHT22;4090;49.270;8.696;2023-07-29T08:59:20;20.90;99.90
8095;DHT22;4090;49.270;8.696;2023-07-29T09:02:02;20.90;99.90
8095;DHT22;4090;49.270;8.696;2023-07-29T09:04:44;20.90;99.90
8095;DHT22;4090;49.270;8.696;2023-07-29T09:07:26;20.90;99.90
8095;DHT22;4090;49.270;8.696;2023-07-29T09:10:09;21.00;99.90
8095;DHT22;4090;49.270;8.696;2023-07-29T09:12:53;21.00;99.90
8095;DHT22;4090;49.270;8.696;2023-07-29T09:15:37;21.10;99.90
8095;DHT22;4090;49.270;8.696;2023-07-29T09:18:20;21.20;99.90
8095;DHT22;4090;49.270;8.696;2023-07-29T09:21:02;21.20;99.90
8095;DHT22;4090;49.270;8.696;2023-07-29T09:23:45;21.20;99.90
8095;DHT22;4090;49.270;8.696;2023-07-29T09:26:28;21.20;99.90
8095;DHT22;4090;49.270;8.696;2023-07-29T09:29:10;21.30;99.90
8095;DHT22;4090;49.270;8.696;2023-07-29T09:32:21;21.30;99.90
8095;DHT22;4090;49.270;8.696;2023-07-29T09:35:28;21.30;99.90
8095;DHT22;4090;49.270;8.696;2023-07-29T09:38:14;21.30;99.90
8095;DHT22;4090;49.270;8.696;2023-07-29T09:40:57;21.40;99.90
8095;DHT22;4090;49.270;8.696;2023-07-29T09:43:39;21.40;99.90
8095;DHT22;4090;49.270;8.696;2023-07-29T09:46:23;21.40;99.90
8095;DHT22;4090;49.270;8.696;2023-07-29T09:49:07;21.50;99.90
8095;DHT22;4090;49.270;8.696;2023-07-29T09:51:49;21.50;99.90
8095;DHT22;4090;49.270;8.696;2023-07-29T09:54:31;21.60;99.90
8095;DHT22;4090;49.270;8.696;2023-07-29T09:57:14;21.60;99.90
8095;DHT22;4090;49.270;8.696;2023-07-29T09:59:56;21.60;99.90
8095;DHT22;4090;49.270;8.696;2023-07-29T10:02:39;21.70;99.90
8095;DHT22;4090;49.270;8.696;2023-07-29T10:05:27;21.70;99.90
8095;DHT22;4090;49.270;8.696;2023-07-29T10:08:09;21.80;99.90
8095;DHT22;4090;49.270;8.696;2023-07-29T10:10:52;21.90;99.90
8095;DHT22;4090;49.270;8.696;2023-07-29T10:13:36;22.00;99.90
8095;DHT22;4090;49.270;8.696;2023-07-29T10:16:18;22.10;99.90
8095;DHT22;4090;49.270;8.696;2023-07-29T10:19:01;22.00;99.90
8095;DHT22;4090;49.270;8.696;2023-07-29T10:21:44;22.00;99.90
8095;DHT22;4090;49.270;8.696;2023-07-29T10:24:33;21.90;99.90
8095;DHT22;4090;49.270;8.696;2023-07-29T10:27:17;22.00;99.90
8095;DHT22;4090;49.270;8.696;2023-07-29T10:30:00;22.00;99.90
8095;DHT22;4090;49.270;8.696;2023-07-29T10:32:44;22.00;99.90
8095;DHT22;4090;49.270;8.696;2023-07-29T10:35:27;22.10;99.90
8095;DHT22;4090;49.270;8.696;2023-07-29T10:38:10;22.10;99.90
8095;DHT22;4090;49.270;8.696;2023-07-29T10:40:54;22.10;99.90
8095;DHT22;4090;49.270;8.696;2023-07-29T10:43:37;22.10;99.90
8095;DHT22;4090;49.270;8.696;2023-07-29T10:46:21;22.20;99.90
8095;DHT22;4090;49.270;8.696;2023-07-29T10:49:03;22.20;99.90
8095;DHT22;4090;49.270;8.696;2023-07-29T10:51:45;22.20;99.90
